createdAt,value
2018-05-31T00:00:41.204Z,14.13
2018-05-31T00:03:08.743Z,13.90
2018-05-31T00:05:37.065Z,12.20
2018-05-31T00:08:04.630Z,12.60
2018-05-31T00:10:32.189Z,12.87
2018-05-31T00:12:59.769Z,12.73
2018-05-31T00:15:27.308Z,13.20
2018-05-31T00:17:54.883Z,12.67
2018-05-31T00:20:22.440Z,12.03
2018-05-31T00:22:50.019Z,13.27
2018-05-31T00:25:17.578Z,12.57
2018-05-31T00:27:45.245Z,11.80
2018-05-31T00:30:12.769Z,11.60
2018-05-31T00:32:41.077Z,12.27
2018-05-31T00:35:08.634Z,12.60
2018-05-31T00:37:37.042Z,11.60
2018-05-31T00:40:04.604Z,10.87
2018-05-31T00:42:32.146Z,11.33
2018-05-31T00:44:59.717Z,12.47
2018-05-31T00:47:27.252Z,12.67
2018-05-31T00:49:55.596Z,11.07
2018-05-31T00:52:23.131Z,11.43
2018-05-31T00:54:50.670Z,12.20
2018-05-31T00:57:19.096Z,13.37
2018-05-31T00:59:46.650Z,12.97
2018-05-31T01:02:14.222Z,12.57
2018-05-31T01:04:41.759Z,11.97
2018-05-31T01:07:09.328Z,12.20
2018-05-31T01:09:36.870Z,13.03
2018-05-31T01:12:05.303Z,12.90
2018-05-31T01:14:32.847Z,11.70
2018-05-31T01:17:00.388Z,11.40
2018-05-31T01:19:28.712Z,11.50
2018-05-31T01:21:56.247Z,11.27
2018-05-31T01:24:23.812Z,10.80
2018-05-31T01:26:51.351Z,12.53
2018-05-31T01:29:19.681Z,12.13
2018-05-31T01:31:47.210Z,14.20
2018-05-31T01:34:15.520Z,13.90
2018-05-31T01:36:43.093Z,13.53
2018-05-31T01:39:17.514Z,14.67
2018-05-31T01:41:45.062Z,13.70
2018-05-31T01:44:12.599Z,17.30
2018-05-31T01:46:40.907Z,14.50
2018-05-31T01:49:08.452Z,13.67
2018-05-31T01:51:36.867Z,14.10
2018-05-31T01:54:04.404Z,16.90
2018-05-31T01:56:31.966Z,16.40
2018-05-31T01:59:00.271Z,16.43
2018-05-31T02:01:27.808Z,15.50
2018-05-31T02:03:56.125Z,14.73
2018-05-31T02:06:23.691Z,15.17
2018-05-31T02:08:51.213Z,14.60
2018-05-31T02:11:19.535Z,15.13
2018-05-31T02:13:47.100Z,13.47
2018-05-31T02:16:14.767Z,13.97
2018-05-31T02:18:42.299Z,13.80
2018-05-31T02:21:10.609Z,14.57
2018-05-31T02:23:38.153Z,12.80
2018-05-31T02:26:06.463Z,13.10
2018-05-31T02:28:34.038Z,12.67
2018-05-31T02:31:01.588Z,13.87
2018-05-31T02:33:29.140Z,13.87
2018-05-31T02:35:56.680Z,12.50
2018-05-31T02:38:24.986Z,12.17
2018-05-31T02:40:52.504Z,12.97
2018-05-31T02:43:20.131Z,12.97
2018-05-31T02:45:47.694Z,12.43
2018-05-31T02:48:15.227Z,12.10
2018-05-31T02:50:42.764Z,11.47
2018-05-31T02:53:10.292Z,11.60
2018-05-31T02:55:37.817Z,11.43
2018-05-31T02:58:06.117Z,12.30
2018-05-31T03:00:33.659Z,9.87
2018-05-31T03:03:01.208Z,11.50
2018-05-31T03:05:29.545Z,10.70
2018-05-31T03:07:57.067Z,11.60
2018-05-31T03:10:25.379Z,12.80
2018-05-31T03:12:52.922Z,11.57
2018-05-31T03:15:20.463Z,11.97
2018-05-31T03:17:48.796Z,11.37
2018-05-31T03:20:16.317Z,12.67
2018-05-31T03:22:44.637Z,12.53
2018-05-31T03:25:12.166Z,11.90
2018-05-31T03:27:39.715Z,12.87
2018-05-31T03:30:08.047Z,11.50
2018-05-31T03:32:35.586Z,12.43
2018-05-31T03:35:03.115Z,11.80
2018-05-31T03:37:30.668Z,10.87
2018-05-31T03:39:58.192Z,13.10
2018-05-31T03:42:25.741Z,11.70
2018-05-31T03:44:54.044Z,11.50
2018-05-31T03:47:21.617Z,11.90
2018-05-31T03:49:49.144Z,11.70
2018-05-31T03:52:17.430Z,11.20
2018-05-31T03:54:45.842Z,11.50
2018-05-31T03:57:13.361Z,12.10
2018-05-31T03:59:41.792Z,12.30
2018-05-31T04:02:09.354Z,11.53
2018-05-31T04:04:36.907Z,10.60
2018-05-31T04:07:04.444Z,13.07
2018-05-31T04:09:32.865Z,10.50
2018-05-31T04:12:00.396Z,11.27
2018-05-31T04:14:28.717Z,11.20
2018-05-31T04:16:56.239Z,11.20
2018-05-31T04:19:24.557Z,10.30
2018-05-31T04:21:52.102Z,12.20
2018-05-31T04:24:19.659Z,10.73
2018-05-31T04:26:47.197Z,10.77
2018-05-31T04:29:15.496Z,12.60
2018-05-31T04:31:43.816Z,11.57
2018-05-31T04:34:11.351Z,12.60
2018-05-31T04:36:38.900Z,13.17
2018-05-31T04:39:07.220Z,12.83
2018-05-31T04:41:34.888Z,12.07
2018-05-31T04:44:02.424Z,13.27
2018-05-31T04:46:29.985Z,11.27
2018-05-31T04:48:57.532Z,11.33
2018-05-31T04:51:25.866Z,12.00
2018-05-31T04:53:53.408Z,10.60
2018-05-31T04:56:20.993Z,12.13
2018-05-31T04:58:48.543Z,12.47
2018-05-31T05:01:16.080Z,11.80
2018-05-31T05:03:44.390Z,12.53
2018-05-31T05:06:11.915Z,13.60
2018-05-31T05:08:40.247Z,13.47
2018-05-31T05:11:07.813Z,12.90
2018-05-31T05:13:35.377Z,13.00
2018-05-31T05:16:02.901Z,12.23
2018-05-31T05:18:31.225Z,12.40
2018-05-31T05:20:58.746Z,12.13
2018-05-31T05:23:27.053Z,12.40
2018-05-31T05:25:54.609Z,12.00
2018-05-31T05:28:22.150Z,11.50
2018-05-31T05:30:50.846Z,12.23
2018-05-31T05:33:19.143Z,13.50
2018-05-31T05:35:46.686Z,13.20
2018-05-31T05:38:14.986Z,13.37
2018-05-31T05:40:42.542Z,11.73
2018-05-31T05:43:10.858Z,12.80
2018-05-31T05:45:38.422Z,10.90
2018-05-31T05:48:05.966Z,12.90
2018-05-31T05:50:33.517Z,11.10
2018-05-31T05:53:01.936Z,13.27
2018-05-31T05:55:29.473Z,12.67
2018-05-31T05:57:57.066Z,14.07
2018-05-31T06:00:24.614Z,14.23
2018-05-31T06:02:52.278Z,13.83
2018-05-31T06:05:20.089Z,13.23
2018-05-31T06:07:47.642Z,12.40
2018-05-31T06:10:15.219Z,12.80
2018-05-31T06:12:42.728Z,12.10
2018-05-31T06:15:11.038Z,10.47
2018-05-31T06:17:38.582Z,12.57
2018-05-31T06:20:06.128Z,12.80
2018-05-31T06:22:34.807Z,12.10
2018-05-31T06:25:03.119Z,10.97
2018-05-31T06:27:31.436Z,11.80
2018-05-31T06:29:58.959Z,11.80
2018-05-31T06:32:26.505Z,11.50
2018-05-31T06:34:54.831Z,11.63
2018-05-31T06:37:22.408Z,11.83
2018-05-31T06:39:50.699Z,11.50
2018-05-31T06:42:18.214Z,12.30
2018-05-31T06:44:45.769Z,11.07
2018-05-31T06:47:13.302Z,11.00
2018-05-31T06:49:40.937Z,11.33
2018-05-31T06:52:08.508Z,11.20
2018-05-31T06:54:36.029Z,10.40
2018-05-31T06:57:04.348Z,11.43
2018-05-31T06:59:31.860Z,9.20
2018-05-31T07:01:59.388Z,12.53
2018-05-31T07:04:26.940Z,9.30
2018-05-31T07:06:54.513Z,9.97
2018-05-31T07:09:22.031Z,9.00
2018-05-31T07:11:50.451Z,8.83
2018-05-31T07:14:17.972Z,10.17
2018-05-31T07:16:45.509Z,8.50
2018-05-31T07:19:13.040Z,8.33
2018-05-31T07:21:40.606Z,8.27
2018-05-31T07:24:08.130Z,7.53
2018-05-31T07:26:35.655Z,9.43
2018-05-31T07:29:03.187Z,8.50
2018-05-31T07:31:30.712Z,7.27
2018-05-31T07:33:58.239Z,9.40
2018-05-31T07:36:25.759Z,8.30
2018-05-31T07:38:54.060Z,8.30
2018-05-31T07:41:21.588Z,8.20
2018-05-31T07:43:49.136Z,7.60
2018-05-31T07:46:16.663Z,8.20
2018-05-31T07:51:18.573Z,8.13
2018-05-31T07:53:46.071Z,7.40
2018-05-31T07:56:13.672Z,8.07
2018-05-31T07:58:41.180Z,7.70
2018-05-31T08:01:08.739Z,7.37
2018-05-31T08:03:36.264Z,6.90
2018-05-31T08:06:03.802Z,7.00
2018-05-31T08:08:32.090Z,7.50
2018-05-31T08:11:00.400Z,8.47
2018-05-31T08:13:27.921Z,7.60
2018-05-31T08:15:56.214Z,6.70
2018-05-31T08:18:23.745Z,7.50
2018-05-31T08:20:51.278Z,6.80
2018-05-31T08:23:18.796Z,6.50
2018-05-31T08:25:47.126Z,10.87
2018-05-31T08:28:14.673Z,6.77
2018-05-31T08:30:42.189Z,8.37
2018-05-31T08:33:09.747Z,7.20
2018-05-31T08:35:37.261Z,7.37
2018-05-31T08:38:04.786Z,6.90
2018-05-31T08:40:32.299Z,6.60
2018-05-31T08:42:59.841Z,7.20
2018-05-31T08:45:27.359Z,7.60
2018-05-31T08:47:54.891Z,6.83
2018-05-31T08:50:22.411Z,6.70
2018-05-31T08:52:51.081Z,7.23
2018-05-31T08:55:18.703Z,6.37
2018-05-31T08:57:46.209Z,6.90
2018-05-31T09:00:13.736Z,6.60
2018-05-31T09:02:41.247Z,7.53
2018-05-31T09:05:08.787Z,7.07
2018-05-31T09:07:36.307Z,6.23
2018-05-31T09:10:03.868Z,6.67
2018-05-31T09:12:31.393Z,6.30
2018-05-31T09:14:58.934Z,7.90
2018-05-31T09:17:26.447Z,6.37
2018-05-31T09:19:54.730Z,6.30
2018-05-31T09:22:23.045Z,6.90
2018-05-31T09:24:50.567Z,5.53
2018-05-31T09:27:18.866Z,6.50
2018-05-31T09:29:47.146Z,6.80
2018-05-31T09:32:15.456Z,6.50
2018-05-31T09:34:42.975Z,6.63
2018-05-31T09:37:11.567Z,6.17
2018-05-31T09:39:39.870Z,6.80
2018-05-31T09:42:07.420Z,6.47
2018-05-31T09:44:35.700Z,6.20
2018-05-31T09:47:04.011Z,5.87
2018-05-31T09:49:31.575Z,6.60
2018-05-31T09:51:59.113Z,6.60
2018-05-31T09:54:27.453Z,5.53
2018-05-31T09:56:54.991Z,6.47
2018-05-31T09:59:22.561Z,5.50
2018-05-31T10:01:50.148Z,5.90
2018-05-31T10:04:17.676Z,5.90
2018-05-31T10:06:45.396Z,5.90
2018-05-31T10:09:12.922Z,6.83
2018-05-31T10:11:40.472Z,7.33
2018-05-31T10:14:08.005Z,6.90
2018-05-31T10:16:36.318Z,6.87
2018-05-31T10:19:03.976Z,6.20
2018-05-31T10:21:31.510Z,6.27
2018-05-31T10:23:59.809Z,6.50
2018-05-31T10:26:28.118Z,5.83
2018-05-31T10:28:55.643Z,5.93
2018-05-31T10:31:24.952Z,7.13
2018-05-31T10:33:53.247Z,6.50
2018-05-31T10:36:20.768Z,6.73
2018-05-31T10:38:48.309Z,6.80
2018-05-31T10:41:15.824Z,5.70
2018-05-31T10:43:45.010Z,6.33
2018-05-31T10:46:13.303Z,6.90
2018-05-31T10:48:41.613Z,5.70
2018-05-31T10:51:09.182Z,6.37
2018-05-31T10:53:36.710Z,5.87
2018-05-31T10:56:04.989Z,5.87
2018-05-31T10:58:33.286Z,5.30
2018-05-31T11:01:01.586Z,5.10
2018-05-31T11:03:29.107Z,5.90
2018-05-31T11:05:57.421Z,5.83
2018-05-31T11:08:24.941Z,6.13
2018-05-31T11:10:52.467Z,6.27
2018-05-31T11:13:19.990Z,5.20
2018-05-31T11:15:48.304Z,6.00
2018-05-31T11:18:15.843Z,5.77
2018-05-31T11:20:44.157Z,6.17
2018-05-31T11:23:12.189Z,6.30
2018-05-31T11:25:40.486Z,5.57
2018-05-31T11:28:08.785Z,6.50
2018-05-31T11:30:36.349Z,6.37
2018-05-31T11:33:03.896Z,6.37
2018-05-31T11:35:32.186Z,5.90
2018-05-31T11:37:59.712Z,7.03
2018-05-31T11:40:28.014Z,5.73
2018-05-31T11:42:56.324Z,6.37
2018-05-31T11:45:23.857Z,6.37
2018-05-31T11:47:52.173Z,5.17
2018-05-31T11:50:19.686Z,6.00
2018-05-31T11:52:47.970Z,6.10
2018-05-31T11:55:16.283Z,6.27
2018-05-31T11:57:43.797Z,6.37
2018-05-31T12:00:11.339Z,5.73
2018-05-31T12:02:38.861Z,6.47
2018-05-31T12:05:07.150Z,6.50
2018-05-31T12:07:35.421Z,6.10
2018-05-31T12:10:03.764Z,6.27
2018-05-31T12:12:31.303Z,6.07
2018-05-31T12:14:58.823Z,5.90
2018-05-31T12:17:27.593Z,6.17
2018-05-31T12:19:55.087Z,5.70
2018-05-31T12:22:23.386Z,6.57
2018-05-31T12:24:50.907Z,6.33
2018-05-31T12:27:18.436Z,6.07
2018-05-31T12:29:45.956Z,5.67
2018-05-31T12:32:14.277Z,5.40
2018-05-31T12:34:41.794Z,5.93
2018-05-31T12:37:10.118Z,5.07
2018-05-31T12:39:37.642Z,5.57
2018-05-31T12:42:05.962Z,5.27
2018-05-31T12:44:33.513Z,4.93
2018-05-31T12:47:01.041Z,5.03
2018-05-31T12:49:30.125Z,6.00
2018-05-31T12:51:57.603Z,5.03
2018-05-31T12:54:25.143Z,5.70
2018-05-31T12:56:52.680Z,5.53
2018-05-31T12:59:20.236Z,5.47
2018-05-31T13:01:47.769Z,5.17
2018-05-31T13:04:16.055Z,5.60
2018-05-31T13:06:44.353Z,5.30
2018-05-31T13:09:11.927Z,5.53
2018-05-31T13:11:39.459Z,5.67
2018-05-31T13:14:07.753Z,5.83
2018-05-31T13:16:36.051Z,5.37
2018-05-31T13:19:03.584Z,5.67
2018-05-31T13:21:31.896Z,5.90
2018-05-31T13:23:59.440Z,6.17
2018-05-31T13:26:27.746Z,6.10
2018-05-31T13:28:56.040Z,6.90
2018-05-31T13:31:23.558Z,6.53
2018-05-31T13:33:51.980Z,7.90
2018-05-31T13:36:19.513Z,6.70
2018-05-31T13:38:47.815Z,6.40
2018-05-31T13:41:15.332Z,6.80
2018-05-31T13:43:43.615Z,7.30
2018-05-31T13:46:11.141Z,8.10
2018-05-31T13:48:38.666Z,7.40
2018-05-31T13:51:06.261Z,7.33
2018-05-31T13:53:34.544Z,7.83
2018-05-31T13:56:02.100Z,7.90
2018-05-31T13:58:29.618Z,8.07
2018-05-31T14:00:57.909Z,8.80
2018-05-31T14:03:25.435Z,7.20
2018-05-31T14:05:52.961Z,8.73
2018-05-31T14:08:20.499Z,7.77
2018-05-31T14:10:48.920Z,8.10
2018-05-31T14:13:17.305Z,8.60
2018-05-31T14:15:44.835Z,8.40
2018-05-31T14:18:13.131Z,7.70
2018-05-31T14:20:41.465Z,6.10
2018-05-31T14:23:09.015Z,5.60
2018-05-31T14:25:36.576Z,5.30
2018-05-31T14:28:04.149Z,4.87
2018-05-31T14:30:31.700Z,5.40
2018-05-31T14:32:59.249Z,4.77
2018-05-31T14:35:26.792Z,5.33
2018-05-31T14:37:55.078Z,5.00
2018-05-31T14:40:23.371Z,6.40
2018-05-31T14:42:50.981Z,6.50
2018-05-31T14:45:18.554Z,6.40
2018-05-31T14:47:46.890Z,6.33
2018-05-31T14:50:14.410Z,6.00
2018-05-31T14:52:41.997Z,5.73
2018-05-31T14:55:09.694Z,6.80
2018-05-31T14:57:37.252Z,6.60
2018-05-31T15:00:05.587Z,7.20
2018-05-31T15:02:33.107Z,7.00
2018-05-31T15:05:00.663Z,6.70
2018-05-31T15:07:31.667Z,7.20
2018-05-31T15:10:01.657Z,6.90
2018-05-31T15:12:30.524Z,7.40
2018-05-31T15:14:59.747Z,6.67
2018-05-31T15:17:27.387Z,6.83
2018-05-31T15:19:54.932Z,5.57
2018-05-31T15:22:23.231Z,6.03
2018-05-31T15:24:50.752Z,6.70
2018-05-31T15:27:18.312Z,6.30
2018-05-31T15:29:45.845Z,7.37
2018-05-31T15:32:13.400Z,5.50
2018-05-31T15:34:40.932Z,5.30
2018-05-31T15:37:09.343Z,5.20
2018-05-31T15:39:36.872Z,5.00
2018-05-31T15:42:05.193Z,5.87
2018-05-31T15:44:32.734Z,5.30
2018-05-31T15:47:00.288Z,5.90
2018-05-31T15:49:28.664Z,10.23
2018-05-31T15:51:57.044Z,5.43
2018-05-31T15:54:25.462Z,5.60
2018-05-31T15:56:53.129Z,6.10
2018-05-31T15:59:20.733Z,5.90
2018-05-31T16:01:49.274Z,6.80
2018-05-31T16:04:18.491Z,6.93
2018-05-31T16:06:46.086Z,6.63
2018-05-31T16:09:13.621Z,7.07
2018-05-31T16:11:41.175Z,6.20
2018-05-31T16:14:08.726Z,6.77
2018-05-31T16:16:36.305Z,6.50
2018-05-31T16:19:03.863Z,7.67
2018-05-31T16:21:31.390Z,8.30
2018-05-31T16:23:58.916Z,8.50
2018-05-31T16:26:26.519Z,7.70
2018-05-31T16:28:54.075Z,9.23
2018-05-31T16:31:21.654Z,8.00
2018-05-31T16:33:49.955Z,7.23
2018-05-31T16:36:18.355Z,6.63
2018-05-31T16:38:45.905Z,6.20
2018-05-31T16:41:14.239Z,5.70
2018-05-31T16:43:41.826Z,5.60
2018-05-31T16:46:10.112Z,6.30
2018-05-31T16:48:37.648Z,5.30
2018-05-31T16:51:05.278Z,6.57
2018-05-31T16:53:32.856Z,6.10
2018-05-31T16:56:00.455Z,7.07
2018-05-31T16:58:28.016Z,7.70
2018-05-31T17:00:55.570Z,4.50
2018-05-31T17:03:23.154Z,8.80
2018-05-31T17:05:50.689Z,10.87
2018-05-31T17:08:18.334Z,5.53
2018-05-31T17:10:45.929Z,5.00
2018-05-31T17:13:13.565Z,6.83
2018-05-31T17:15:41.170Z,6.83
2018-05-31T17:18:08.713Z,4.67
2018-05-31T17:20:36.362Z,5.70
2018-05-31T17:23:03.887Z,5.03
2018-05-31T17:25:32.313Z,4.73
2018-05-31T17:28:01.816Z,4.47
2018-05-31T17:30:29.939Z,4.57
2018-05-31T17:32:57.530Z,3.70
2018-05-31T17:35:25.433Z,4.93
2018-05-31T17:37:53.735Z,4.90
2018-05-31T17:40:21.719Z,5.20
2018-05-31T17:42:49.988Z,4.50
2018-05-31T17:45:17.946Z,4.00
2018-05-31T17:47:46.573Z,3.50
2018-05-31T17:50:14.147Z,4.20
2018-05-31T17:52:41.708Z,4.03
2018-05-31T17:55:09.293Z,4.47
2018-05-31T17:57:37.616Z,4.00
2018-05-31T18:00:05.285Z,3.67
2018-05-31T18:02:32.903Z,3.80
2018-05-31T18:05:01.335Z,3.50
2018-05-31T18:07:28.991Z,3.80
2018-05-31T18:09:56.566Z,3.33
2018-05-31T18:12:24.173Z,3.60
2018-05-31T18:14:52.639Z,3.70
2018-05-31T18:17:20.272Z,3.60
2018-05-31T18:19:47.864Z,3.07
2018-05-31T18:22:15.509Z,3.00
2018-05-31T18:24:43.108Z,3.50
2018-05-31T18:27:11.707Z,4.13
2018-05-31T18:29:39.322Z,3.17
2018-05-31T18:32:06.913Z,3.57
2018-05-31T18:34:34.538Z,3.80
2018-05-31T18:37:02.170Z,3.80
2018-05-31T18:39:29.819Z,5.10
2018-05-31T18:41:57.564Z,5.23
2018-05-31T18:44:25.218Z,5.17
2018-05-31T18:46:52.907Z,5.73
2018-05-31T18:49:20.555Z,5.70
2018-05-31T18:51:48.334Z,4.67
2018-05-31T18:54:16.006Z,4.20
2018-05-31T18:56:43.789Z,4.50
2018-05-31T18:59:11.371Z,4.97
2018-05-31T19:01:39.022Z,4.80
2018-05-31T19:04:06.665Z,6.67
2018-05-31T19:06:34.259Z,6.40
2018-05-31T19:09:02.620Z,5.70
2018-05-31T19:11:31.489Z,6.23
2018-05-31T19:13:59.104Z,5.30
2018-05-31T19:16:26.744Z,6.50
2018-05-31T19:19:00.032Z,8.00
2018-05-31T19:21:28.542Z,6.10
2018-05-31T19:23:57.650Z,5.70
2018-05-31T19:26:26.149Z,6.03
2018-05-31T19:28:53.850Z,6.10
2018-05-31T19:31:21.544Z,6.87
2018-05-31T19:33:50.230Z,6.13
2018-05-31T19:36:23.630Z,6.77
2018-05-31T19:38:51.397Z,7.60
2018-05-31T19:41:19.106Z,7.20
2018-05-31T19:43:52.715Z,7.03
2018-05-31T19:46:20.540Z,6.63
2018-05-31T19:48:49.127Z,7.73
2018-05-31T19:51:22.624Z,7.27
2018-05-31T19:53:50.233Z,7.70
2018-05-31T19:56:18.080Z,7.17
2018-05-31T19:58:51.262Z,6.83
2018-05-31T20:01:34.715Z,6.47
2018-05-31T20:04:02.452Z,6.10
2018-05-31T20:06:30.221Z,6.50
2018-05-31T20:08:57.905Z,6.30
2018-05-31T20:11:25.657Z,6.07
2018-05-31T20:13:53.268Z,6.30
2018-05-31T20:16:20.891Z,6.60
2018-05-31T20:18:49.270Z,7.67
2018-05-31T20:21:16.873Z,6.77
2018-05-31T20:23:44.605Z,6.23
2018-05-31T20:26:12.391Z,7.13
2018-05-31T20:28:40.654Z,6.50
2018-05-31T20:31:08.361Z,6.97
2018-05-31T20:33:37.620Z,7.47
2018-05-31T20:36:05.235Z,7.20
2018-05-31T20:38:33.672Z,6.60
2018-05-31T20:41:01.288Z,7.50
2018-05-31T20:43:28.826Z,6.50
2018-05-31T20:45:56.427Z,6.47
2018-05-31T20:48:24.748Z,7.30
2018-05-31T20:50:52.414Z,5.63
2018-05-31T20:53:20.080Z,5.80
2018-05-31T20:55:47.653Z,6.47
2018-05-31T20:58:15.222Z,6.17
2018-05-31T21:00:42.776Z,7.43
2018-05-31T21:03:10.325Z,6.33
2018-05-31T21:05:37.882Z,6.80
2018-05-31T21:08:06.214Z,8.60
2018-05-31T21:10:33.792Z,7.00
2018-05-31T21:13:01.341Z,6.73
2018-05-31T21:15:28.982Z,6.60
2018-05-31T21:17:56.648Z,6.37
2018-05-31T21:20:24.216Z,5.93
2018-05-31T21:22:51.783Z,5.30
2018-05-31T21:25:19.316Z,6.77
2018-05-31T21:27:47.725Z,5.90
2018-05-31T21:30:15.256Z,5.50
2018-05-31T21:32:42.808Z,6.17
2018-05-31T21:35:10.344Z,7.00
2018-05-31T21:37:37.887Z,6.47
2018-05-31T21:40:05.551Z,6.70
2018-05-31T21:42:33.079Z,6.67
2018-05-31T21:45:01.429Z,7.20
2018-05-31T21:47:29.058Z,8.20
2018-05-31T21:49:56.622Z,6.80
2018-05-31T21:52:24.152Z,6.57
2018-05-31T21:54:52.468Z,6.60
2018-05-31T21:57:20.034Z,6.40
2018-05-31T21:59:47.601Z,6.87
2018-05-31T22:02:15.172Z,5.20
2018-05-31T22:04:42.702Z,6.20
2018-05-31T22:07:10.998Z,5.90
2018-05-31T22:09:38.575Z,5.93
2018-05-31T22:12:06.165Z,5.60
2018-05-31T22:14:33.674Z,5.50
2018-05-31T22:17:01.986Z,5.40
2018-05-31T22:19:29.554Z,6.03
2018-05-31T22:21:57.113Z,5.67
2018-05-31T22:24:24.681Z,6.40
2018-05-31T22:26:52.202Z,5.80
2018-05-31T22:29:20.505Z,6.10
2018-05-31T22:31:48.811Z,5.80
2018-05-31T22:34:16.343Z,5.40
2018-05-31T22:36:44.649Z,6.33
2018-05-31T22:39:12.159Z,6.30
2018-05-31T22:41:41.213Z,5.37
2018-05-31T22:44:08.721Z,5.63
2018-05-31T22:46:36.250Z,7.23
2018-05-31T22:49:03.757Z,6.80
2018-05-31T22:51:31.297Z,6.73
2018-05-31T22:53:58.828Z,5.93
2018-05-31T22:56:26.363Z,5.33
2018-05-31T22:58:54.776Z,6.53
2018-05-31T23:01:22.309Z,6.23
2018-05-31T23:03:50.622Z,6.03
2018-05-31T23:06:18.187Z,5.73
2018-05-31T23:11:24.559Z,5.53
2018-05-31T23:13:52.143Z,5.57
2018-05-31T23:16:19.700Z,6.43
2018-05-31T23:18:47.230Z,6.23
2018-05-31T23:21:14.755Z,5.87
2018-05-31T23:23:42.294Z,5.70
2018-05-31T23:26:09.859Z,5.90
2018-05-31T23:28:37.383Z,6.20
2018-05-31T23:31:04.895Z,5.97
2018-05-31T23:33:32.432Z,5.40
2018-05-31T23:35:59.961Z,6.07
2018-05-31T23:38:27.481Z,6.00
2018-05-31T23:40:55.007Z,5.23
2018-05-31T23:43:23.291Z,5.77
2018-05-31T23:45:51.566Z,5.50
2018-05-31T23:48:19.076Z,6.40
2018-05-31T23:50:46.632Z,5.53
2018-05-31T23:53:14.150Z,6.90
2018-05-31T23:55:42.444Z,6.80
2018-05-31T23:58:10.727Z,5.83
